MSR727 HECA-HESH
Flight info
| Callsign | MSR727 |
|---|---|
| Flight time | 0h 43m |
| Altitude | 30000 |
| Route | CVO L677 MENLI N697 SISIK V603 DASOT DCT SHM |
| Aircraft | B738/M-SDE2E3FGHIRWXY/LB1 |
Departure
| Time | 2026-05-04 17:27 |
|---|---|
| Airport | Cairo International Airport (HECA) |
Arrival
| Time | 2026-05-04 18:10 |
|---|---|
| Airport | Sharm El Sheikh International Airport (HESH) |
| Time | Latitude | Longitude | Altitude | Speed | Heading |
|---|---|---|---|---|---|
| 2026-05-04 17:11 | 30.10778 | 31.40192 | 373 ft | 0 kts | 140° |
| 2026-05-04 17:18 | 30.10788 | 31.40182 | 373 ft | 4 kts | 130° |
| 2026-05-04 17:18 | 30.10796 | 31.40128 | 373 ft | 4 kts | 58° |
| 2026-05-04 17:19 | 30.10780 | 31.40108 | 373 ft | 0 kts | 32° |
| 2026-05-04 17:21 | 30.10861 | 31.40140 | 373 ft | 14 kts | 29° |
| 2026-05-04 17:21 | 30.10951 | 31.40352 | 373 ft | 16 kts | 105° |
| 2026-05-04 17:22 | 30.10920 | 31.40500 | 373 ft | 21 kts | 85° |
| 2026-05-04 17:22 | 30.11002 | 31.40642 | 373 ft | 22 kts | 49° |
| 2026-05-04 17:23 | 30.11252 | 31.40975 | 374 ft | 23 kts | 49° |
| 2026-05-04 17:23 | 30.11355 | 31.41112 | 374 ft | 22 kts | 49° |
| 2026-05-04 17:23 | 30.11414 | 31.41354 | 374 ft | 15 kts | 49° |
| 2026-05-04 17:24 | 30.11494 | 31.41456 | 374 ft | 20 kts | 49° |
| 2026-05-04 17:24 | 30.11826 | 31.41899 | 374 ft | 23 kts | 49° |
| 2026-05-04 17:25 | 30.11929 | 31.42037 | 374 ft | 22 kts | 49° |
| 2026-05-04 17:25 | 30.12108 | 31.42277 | 374 ft | 17 kts | 49° |
| 2026-05-04 17:26 | 30.12181 | 31.42490 | 374 ft | 15 kts | 134° |
| 2026-05-04 17:26 | 30.11962 | 31.42470 | 372 ft | 47 kts | 230° |
| 2026-05-04 17:27 | 30.10777 | 31.40928 | 832 ft | 176 kts | 233° |
| 2026-05-04 17:27 | 30.08485 | 31.39142 | 2342 ft | 227 kts | 189° |
| 2026-05-04 17:28 | 30.05547 | 31.40834 | 3536 ft | 266 kts | 127° |
| 2026-05-04 17:29 | 30.02430 | 31.46548 | 6582 ft | 287 kts | 122° |
| 2026-05-04 17:29 | 29.99111 | 31.52656 | 9542 ft | 314 kts | 124° |
| 2026-05-04 17:30 | 29.95256 | 31.59577 | 11308 ft | 374 kts | 124° |
| 2026-05-04 17:31 | 29.92383 | 31.64717 | 13092 ft | 388 kts | 125° |
| 2026-05-04 17:31 | 29.87579 | 31.72481 | 15874 ft | 404 kts | 131° |
| 2026-05-04 17:32 | 29.84153 | 31.77717 | 17751 ft | 415 kts | 131° |
| 2026-05-04 17:33 | 29.80061 | 31.84068 | 19678 ft | 428 kts | 130° |
| 2026-05-04 17:33 | 29.78082 | 31.88122 | 20760 ft | 442 kts | 117° |
| 2026-05-04 17:34 | 29.75334 | 31.99768 | 23201 ft | 464 kts | 106° |
| 2026-05-04 17:34 | 29.74573 | 32.03398 | 23871 ft | 469 kts | 107° |
| 2026-05-04 17:35 | 29.72165 | 32.14464 | 25660 ft | 482 kts | 107° |
| 2026-05-04 17:35 | 29.70484 | 32.21993 | 26803 ft | 490 kts | 108° |
| 2026-05-04 17:35 | 29.69631 | 32.25799 | 27349 ft | 494 kts | 108° |
| 2026-05-04 17:36 | 29.68768 | 32.29642 | 27867 ft | 498 kts | 108° |
| 2026-05-04 17:36 | 29.67901 | 32.33506 | 28497 ft | 499 kts | 108° |
| 2026-05-04 17:36 | 29.67037 | 32.37362 | 29229 ft | 498 kts | 108° |
| 2026-05-04 17:36 | 29.66171 | 32.41216 | 29917 ft | 497 kts | 108° |
| 2026-05-04 17:37 | 29.65301 | 32.45078 | 30044 ft | 501 kts | 108° |
| 2026-05-04 17:37 | 29.63568 | 32.52763 | 30040 ft | 492 kts | 108° |
| 2026-05-04 17:38 | 29.61844 | 32.60379 | 30058 ft | 494 kts | 108° |
| 2026-05-04 17:38 | 29.59818 | 32.67885 | 30042 ft | 487 kts | 120° |
| 2026-05-04 17:39 | 29.54290 | 32.77399 | 30047 ft | 475 kts | 135° |
| 2026-05-04 17:39 | 29.50275 | 32.83367 | 30041 ft | 476 kts | 135° |
| 2026-05-04 17:40 | 29.46261 | 32.89404 | 30018 ft | 476 kts | 134° |
| 2026-05-04 17:40 | 29.42265 | 32.95462 | 30041 ft | 476 kts | 134° |
| 2026-05-04 17:41 | 29.38275 | 33.01516 | 30047 ft | 476 kts | 134° |
| 2026-05-04 17:41 | 29.34286 | 33.07558 | 30047 ft | 475 kts | 134° |
| 2026-05-04 17:42 | 29.30293 | 33.13595 | 30057 ft | 475 kts | 134° |
| 2026-05-04 17:42 | 29.26291 | 33.19633 | 30052 ft | 476 kts | 134° |
| 2026-05-04 17:43 | 29.22292 | 33.25660 | 30046 ft | 475 kts | 134° |
| 2026-05-04 17:43 | 29.18299 | 33.31672 | 30048 ft | 470 kts | 134° |
| 2026-05-04 17:44 | 29.16348 | 33.34613 | 29908 ft | 460 kts | 135° |
| 2026-05-04 17:44 | 29.15076 | 33.36531 | 29687 ft | 453 kts | 135° |
| 2026-05-04 17:44 | 29.13191 | 33.39369 | 29324 ft | 444 kts | 135° |
| 2026-05-04 17:44 | 29.10724 | 33.43073 | 28813 ft | 435 kts | 135° |
| 2026-05-04 17:45 | 29.08900 | 33.45804 | 28403 ft | 429 kts | 135° |
| 2026-05-04 17:45 | 29.07706 | 33.47592 | 28152 ft | 425 kts | 135° |
| 2026-05-04 17:45 | 29.05322 | 33.51158 | 27630 ft | 418 kts | 135° |
| 2026-05-04 17:45 | 29.03564 | 33.53785 | 27258 ft | 415 kts | 135° |
| 2026-05-04 17:46 | 29.01820 | 33.56390 | 26888 ft | 411 kts | 135° |
| 2026-05-04 17:46 | 29.00082 | 33.58982 | 26513 ft | 413 kts | 135° |
| 2026-05-04 17:46 | 28.98306 | 33.61622 | 26150 ft | 425 kts | 135° |
| 2026-05-04 17:46 | 28.96496 | 33.64314 | 25753 ft | 426 kts | 135° |
| 2026-05-04 17:47 | 28.94706 | 33.66990 | 25360 ft | 421 kts | 134° |
| 2026-05-04 17:47 | 28.92940 | 33.69631 | 24946 ft | 416 kts | 134° |
| 2026-05-04 17:47 | 28.91191 | 33.72243 | 24570 ft | 411 kts | 134° |
| 2026-05-04 17:47 | 28.90044 | 33.73952 | 24319 ft | 408 kts | 135° |
| 2026-05-04 17:48 | 28.87751 | 33.77364 | 23805 ft | 402 kts | 135° |
| 2026-05-04 17:48 | 28.86057 | 33.79885 | 23420 ft | 398 kts | 135° |
| 2026-05-04 17:48 | 28.84380 | 33.82374 | 23012 ft | 394 kts | 135° |
| 2026-05-04 17:48 | 28.82725 | 33.84830 | 22683 ft | 388 kts | 135° |
| 2026-05-04 17:49 | 28.81640 | 33.86438 | 22434 ft | 385 kts | 135° |
| 2026-05-04 17:49 | 28.80011 | 33.88848 | 22082 ft | 383 kts | 135° |
| 2026-05-04 17:49 | 28.78387 | 33.91248 | 21707 ft | 382 kts | 135° |
| 2026-05-04 17:49 | 28.76763 | 33.93647 | 21342 ft | 384 kts | 135° |
| 2026-05-04 17:50 | 28.75106 | 33.96089 | 20975 ft | 394 kts | 134° |
| 2026-05-04 17:50 | 28.73428 | 33.98569 | 20597 ft | 395 kts | 134° |
| 2026-05-04 17:50 | 28.71762 | 34.01035 | 20206 ft | 390 kts | 134° |
| 2026-05-04 17:50 | 28.70106 | 34.03460 | 19827 ft | 383 kts | 137° |
| 2026-05-04 17:51 | 28.68244 | 34.05543 | 19451 ft | 369 kts | 149° |
| 2026-05-04 17:51 | 28.66165 | 34.07175 | 19056 ft | 357 kts | 159° |
| 2026-05-04 17:51 | 28.63960 | 34.08382 | 18703 ft | 348 kts | 165° |
| 2026-05-04 17:51 | 28.61760 | 34.09507 | 18331 ft | 345 kts | 165° |
| 2026-05-04 17:52 | 28.61049 | 34.09868 | 18208 ft | 344 kts | 165° |
| 2026-05-04 17:52 | 28.55035 | 34.12934 | 17168 ft | 333 kts | 164° |
| 2026-05-04 17:52 | 28.52923 | 34.14016 | 16834 ft | 332 kts | 164° |
| 2026-05-04 17:53 | 28.50811 | 34.15101 | 16490 ft | 334 kts | 163° |
| 2026-05-04 17:53 | 28.48700 | 34.16172 | 16142 ft | 340 kts | 163° |
| 2026-05-04 17:53 | 28.46522 | 34.17293 | 15795 ft | 345 kts | 163° |
| 2026-05-04 17:53 | 28.44348 | 34.18417 | 15437 ft | 341 kts | 163° |
| 2026-05-04 17:54 | 28.42207 | 34.19528 | 15064 ft | 336 kts | 162° |
| 2026-05-04 17:54 | 28.40101 | 34.20620 | 14763 ft | 330 kts | 162° |
| 2026-05-04 17:54 | 28.38015 | 34.21691 | 14333 ft | 329 kts | 162° |
| 2026-05-04 17:54 | 28.35946 | 34.22761 | 14019 ft | 324 kts | 162° |
| 2026-05-04 17:55 | 28.33902 | 34.23810 | 13677 ft | 321 kts | 163° |
| 2026-05-04 17:55 | 28.31875 | 34.24853 | 13325 ft | 319 kts | 162° |
| 2026-05-04 17:55 | 28.29860 | 34.25890 | 12970 ft | 316 kts | 162° |
| 2026-05-04 17:55 | 28.27870 | 34.26916 | 12639 ft | 313 kts | 162° |
| 2026-05-04 17:56 | 28.25882 | 34.27933 | 12305 ft | 315 kts | 162° |
| 2026-05-04 17:56 | 28.23875 | 34.28962 | 11997 ft | 319 kts | 162° |
| 2026-05-04 17:56 | 28.21852 | 34.30004 | 11649 ft | 319 kts | 162° |
| 2026-05-04 17:56 | 28.19841 | 34.31036 | 11301 ft | 315 kts | 162° |
| 2026-05-04 17:57 | 28.17854 | 34.32056 | 10960 ft | 312 kts | 162° |
| 2026-05-04 17:57 | 28.15891 | 34.33063 | 10624 ft | 308 kts | 162° |
| 2026-05-04 17:57 | 28.13947 | 34.34061 | 10333 ft | 304 kts | 162° |
| 2026-05-04 17:57 | 28.12053 | 34.35033 | 10191 ft | 294 kts | 161° |
| 2026-05-04 17:58 | 28.10227 | 34.35971 | 10068 ft | 283 kts | 162° |
| 2026-05-04 17:58 | 28.08449 | 34.36880 | 9917 ft | 279 kts | 162° |
| 2026-05-04 17:58 | 28.06663 | 34.37790 | 9670 ft | 285 kts | 161° |
| 2026-05-04 17:58 | 28.04834 | 34.38722 | 9380 ft | 292 kts | 161° |
| 2026-05-04 17:59 | 28.02988 | 34.39665 | 9071 ft | 290 kts | 160° |
| 2026-05-04 17:59 | 28.01118 | 34.40367 | 8754 ft | 279 kts | 179° |
| 2026-05-04 17:59 | 27.97686 | 34.39105 | 8203 ft | 256 kts | 222° |
| 2026-05-04 18:00 | 27.96376 | 34.37776 | 7941 ft | 251 kts | 226° |
| 2026-05-04 18:00 | 27.95121 | 34.36427 | 7701 ft | 247 kts | 226° |
| 2026-05-04 18:00 | 27.93886 | 34.35094 | 7463 ft | 244 kts | 226° |
| 2026-05-04 18:00 | 27.92659 | 34.33774 | 7192 ft | 245 kts | 225° |
| 2026-05-04 18:01 | 27.91375 | 34.32400 | 6639 ft | 258 kts | 224° |
| 2026-05-04 18:01 | 27.90056 | 34.30995 | 6164 ft | 263 kts | 224° |
| 2026-05-04 18:01 | 27.88729 | 34.29586 | 5677 ft | 267 kts | 224° |
| 2026-05-04 18:02 | 27.86078 | 34.26781 | 4741 ft | 254 kts | 223° |
| 2026-05-04 18:02 | 27.84815 | 34.25447 | 4452 ft | 240 kts | 223° |
| 2026-05-04 18:02 | 27.83659 | 34.24228 | 4437 ft | 216 kts | 224° |
| 2026-05-04 18:02 | 27.82615 | 34.23127 | 4406 ft | 196 kts | 223° |
| 2026-05-04 18:03 | 27.81572 | 34.22174 | 4388 ft | 194 kts | 206° |
| 2026-05-04 18:03 | 27.80287 | 34.21734 | 4403 ft | 193 kts | 187° |
| 2026-05-04 18:03 | 27.78964 | 34.21777 | 4400 ft | 190 kts | 167° |
| 2026-05-04 18:03 | 27.77748 | 34.22313 | 4389 ft | 187 kts | 146° |
| 2026-05-04 18:04 | 27.76793 | 34.23277 | 4397 ft | 183 kts | 126° |
| 2026-05-04 18:04 | 27.76359 | 34.24087 | 4394 ft | 182 kts | 111° |
| 2026-05-04 18:04 | 27.76271 | 34.27375 | 4257 ft | 185 kts | 71° |
| 2026-05-04 18:05 | 27.76851 | 34.28662 | 4161 ft | 184 kts | 46° |
| 2026-05-04 18:05 | 27.77973 | 34.29187 | 4012 ft | 176 kts | 360° |
| 2026-05-04 18:05 | 27.79200 | 34.29124 | 3847 ft | 176 kts | 359° |
| 2026-05-04 18:05 | 27.80437 | 34.29084 | 3653 ft | 178 kts | 359° |
| 2026-05-04 18:06 | 27.82901 | 34.29076 | 3283 ft | 174 kts | 1° |
| 2026-05-04 18:06 | 27.84076 | 34.29086 | 3262 ft | 165 kts | 2° |
| 2026-05-04 18:06 | 27.85226 | 34.29092 | 3249 ft | 168 kts | 0° |
| 2026-05-04 18:07 | 27.86388 | 34.28901 | 3275 ft | 172 kts | 342° |
| 2026-05-04 18:07 | 27.87550 | 34.28537 | 3241 ft | 178 kts | 3° |
| 2026-05-04 18:07 | 27.88635 | 34.29149 | 3258 ft | 181 kts | 50° |
| 2026-05-04 18:07 | 27.89454 | 34.30293 | 2940 ft | 186 kts | 48° |
| 2026-05-04 18:08 | 27.90285 | 34.31322 | 2901 ft | 174 kts | 46° |
| 2026-05-04 18:08 | 27.91138 | 34.32268 | 2909 ft | 171 kts | 43° |
| 2026-05-04 18:08 | 27.91979 | 34.33173 | 2643 ft | 165 kts | 44° |
| 2026-05-04 18:08 | 27.92793 | 34.34049 | 2161 ft | 160 kts | 43° |
| 2026-05-04 18:09 | 27.94392 | 34.35750 | 1260 ft | 159 kts | 40° |
| 2026-05-04 18:09 | 27.95983 | 34.37368 | 452 ft | 150 kts | 40° |
| 2026-05-04 18:10 | 27.96729 | 34.38144 | 210 ft | 143 kts | 39° |
| 2026-05-04 18:10 | 27.97432 | 34.38878 | 136 ft | 124 kts | 39° |
| 2026-05-04 18:10 | 27.97972 | 34.39433 | 139 ft | 74 kts | 43° |
| 2026-05-04 18:10 | 27.98124 | 34.39565 | 138 ft | 15 kts | 350° |
| 2026-05-04 18:11 | 27.98189 | 34.39494 | 138 ft | 11 kts | 318° |
| 2026-05-04 18:11 | 27.98239 | 34.39433 | 138 ft | 11 kts | 288° |
| 2026-05-04 18:11 | 27.98196 | 34.39367 | 138 ft | 12 kts | 224° |
| 2026-05-04 18:11 | 27.98103 | 34.39267 | 138 ft | 24 kts | 223° |
| 2026-05-04 18:12 | 27.97972 | 34.39131 | 137 ft | 26 kts | 222° |
| 2026-05-04 18:12 | 27.97865 | 34.39021 | 137 ft | 15 kts | 222° |
| 2026-05-04 18:12 | 27.97787 | 34.38941 | 137 ft | 16 kts | 222° |
| 2026-05-04 18:12 | 27.97706 | 34.38857 | 137 ft | 16 kts | 222° |
| 2026-05-04 18:13 | 27.97628 | 34.38775 | 137 ft | 13 kts | 223° |
| 2026-05-04 18:13 | 27.97631 | 34.38713 | 137 ft | 7 kts | 311° |
| 2026-05-04 18:13 | 27.97666 | 34.38673 | 137 ft | 0 kts | 315° |